Hanover, Illinois
Current Conditions -  °F | °C
As of 10:15 AM on Sunday 23 Nov 2014 (Local Time) from KSFY Reporting Station
Moderate Rain Moderate Rain  
Wind Chill: 46°   Ceiling: 700
Heat Index: 49°   Visibility: 2.5mi
Dew Point: 47°   Wind: 8mph
Humidity: 93%   Direction: 150°SSE
Pressure: 29.61"   Gusts: NA
Location:  42.26°N, 90.28°W
Report Text: KSFY 231615Z AUTO 15007KT 2 1/2SM RA OVC007 10/09 A2961 RMK AO2 P0003 T00950085
Loading
Personal Weather Stations






























Interactive Weather Map New forecast layout! Learn more

10-Day Weather Forecast

Advertisements
Track Severe Weather on mobile